createdAt,value
2019-05-29T00:00:58.510Z,92.10
2019-05-29T00:01:58.548Z,91.89
2019-05-29T00:02:58.486Z,92.10
2019-05-29T00:03:58.472Z,91.58
2019-05-29T00:04:58.466Z,92.19
2019-05-29T00:05:58.493Z,92.65
2019-05-29T00:06:58.440Z,92.65
2019-05-29T00:07:58.455Z,92.71
2019-05-29T00:08:58.414Z,92.75
2019-05-29T00:09:58.403Z,92.24
2019-05-29T00:10:58.396Z,92.55
2019-05-29T00:11:58.393Z,93.06
2019-05-29T00:12:58.370Z,93.10
2019-05-29T00:13:58.406Z,92.69
2019-05-29T00:14:58.347Z,93.10
2019-05-29T00:15:58.336Z,92.69
2019-05-29T00:16:58.327Z,92.79
2019-05-29T00:17:58.334Z,92.69
2019-05-29T00:18:58.497Z,92.49
2019-05-29T00:19:58.325Z,92.69
2019-05-29T00:20:58.284Z,92.90
2019-05-29T00:21:58.268Z,92.90
2019-05-29T00:22:58.261Z,92.74
2019-05-29T00:23:58.249Z,92.83
2019-05-29T00:24:58.246Z,92.94
2019-05-29T00:25:58.276Z,92.53
2019-05-29T00:26:58.215Z,93.25
2019-05-29T00:27:58.222Z,93.66
2019-05-29T00:28:58.192Z,93.96
2019-05-29T00:29:58.188Z,93.86
2019-05-29T00:30:58.179Z,93.86
2019-05-29T00:31:58.198Z,93.86
2019-05-29T00:32:58.154Z,94.01
2019-05-29T00:33:58.135Z,94.01
2019-05-29T00:34:58.130Z,93.90
2019-05-29T00:35:58.115Z,93.60
2019-05-29T00:36:58.118Z,94.11
2019-05-29T00:37:58.144Z,93.39
2019-05-29T00:38:58.080Z,93.60
2019-05-29T00:39:58.068Z,93.39
2019-05-29T00:40:58.061Z,93.90
2019-05-29T00:41:58.049Z,93.95
2019-05-29T00:42:58.055Z,94.05
2019-05-29T00:43:58.064Z,94.52
2019-05-29T00:44:58.017Z,94.36
2019-05-29T00:45:58.003Z,94.26
2019-05-29T00:46:58.015Z,94.26
2019-05-29T00:47:57.983Z,94.46
2019-05-29T00:48:57.979Z,94.77
2019-05-29T00:49:58.017Z,94.67
2019-05-29T00:50:57.952Z,94.56
2019-05-29T00:51:57.936Z,94.77
2019-05-29T00:52:57.925Z,94.67
2019-05-29T00:53:57.937Z,94.67
2019-05-29T00:54:57.932Z,94.67
2019-05-29T00:55:57.929Z,94.56
2019-05-29T00:56:57.879Z,93.95
2019-05-29T00:57:57.870Z,94.15
2019-05-29T00:58:57.866Z,94.67
2019-05-29T00:59:57.850Z,94.67
2019-05-29T01:00:57.872Z,94.10
2019-05-29T01:01:57.876Z,94.20
2019-05-29T01:02:57.815Z,94.71
2019-05-29T01:03:57.860Z,94.71
2019-05-29T01:04:57.795Z,94.92
2019-05-29T01:05:57.783Z,94.92
2019-05-29T01:06:57.792Z,95.02
2019-05-29T01:07:57.952Z,95.32
2019-05-29T01:08:57.752Z,94.81
2019-05-29T01:09:57.738Z,94.92
2019-05-29T01:10:57.730Z,94.20
2019-05-29T01:11:57.724Z,94.30
2019-05-29T01:12:57.720Z,94.30
2019-05-29T01:13:57.746Z,94.71
2019-05-29T01:14:57.687Z,94.20
2019-05-29T01:15:57.671Z,93.95
2019-05-29T01:16:57.660Z,93.99
2019-05-29T01:17:57.649Z,93.64
2019-05-29T01:18:57.656Z,93.13
2019-05-29T01:19:57.657Z,93.64
2019-05-29T01:20:57.620Z,93.64
2019-05-29T01:21:57.790Z,93.68
2019-05-29T01:22:57.597Z,93.74
2019-05-29T01:23:57.586Z,94.20
2019-05-29T01:24:57.593Z,93.13
2019-05-29T01:25:57.611Z,93.44
2019-05-29T01:26:57.555Z,93.54
2019-05-29T01:27:57.539Z,93.64
2019-05-29T01:28:57.530Z,93.64
2019-05-29T01:29:57.535Z,93.95
2019-05-29T01:30:57.526Z,94.15
2019-05-29T01:31:57.530Z,94.05
2019-05-29T01:32:57.497Z,94.05
2019-05-29T01:33:57.475Z,93.85
2019-05-29T01:34:57.467Z,93.64
2019-05-29T01:35:57.450Z,93.64
2019-05-29T01:36:57.455Z,93.48
2019-05-29T01:37:57.458Z,92.93
2019-05-29T01:38:57.423Z,92.66
2019-05-29T01:39:57.408Z,93.02
2019-05-29T01:40:57.399Z,93.23
2019-05-29T01:41:57.384Z,93.07
2019-05-29T01:42:57.398Z,93.07
2019-05-29T01:43:57.410Z,93.27
2019-05-29T01:45:07.277Z,93.38
2019-05-29T01:45:58.339Z,93.38
2019-05-29T01:46:57.329Z,93.99
2019-05-29T01:47:57.319Z,93.93
2019-05-29T01:48:57.318Z,93.99
2019-05-29T01:49:57.335Z,94.10
2019-05-29T01:50:57.282Z,94.04
2019-05-29T01:51:57.299Z,94.24
2019-05-29T01:52:57.263Z,93.73
2019-05-29T01:53:57.259Z,94.04
2019-05-29T01:54:57.251Z,94.24
2019-05-29T01:55:57.269Z,93.83
2019-05-29T01:56:57.220Z,94.04
2019-05-29T01:57:57.205Z,94.34
2019-05-29T01:58:57.196Z,93.73
2019-05-29T01:59:57.188Z,93.93
2019-05-29T02:00:57.197Z,93.93
2019-05-29T02:01:57.204Z,93.32
2019-05-29T02:02:57.152Z,93.63
2019-05-29T02:03:57.143Z,93.32
2019-05-29T02:04:57.128Z,93.73
2019-05-29T02:05:57.124Z,93.32
2019-05-29T02:06:57.128Z,93.42
2019-05-29T02:07:57.148Z,93.32
2019-05-29T02:08:57.086Z,93.12
2019-05-29T02:09:57.074Z,93.21
2019-05-29T02:10:57.070Z,93.21
2019-05-29T02:11:57.058Z,93.16
2019-05-29T02:12:57.061Z,93.52
2019-05-29T02:13:57.077Z,93.32
2019-05-29T02:14:57.022Z,93.57
2019-05-29T02:15:57.006Z,93.77
2019-05-29T02:16:57.006Z,93.77
2019-05-29T02:17:56.983Z,93.77
2019-05-29T02:18:57.002Z,93.46
2019-05-29T02:19:57.240Z,93.77
2019-05-29T02:20:56.950Z,93.57
2019-05-29T02:21:56.939Z,94.43
2019-05-29T02:22:56.933Z,94.12
2019-05-29T02:23:56.915Z,94.12
2019-05-29T02:24:56.929Z,94.02
2019-05-29T02:25:56.948Z,94.18
2019-05-29T02:26:56.890Z,95.05
2019-05-29T02:27:56.883Z,94.74
2019-05-29T02:28:56.863Z,94.64
2019-05-29T02:29:56.857Z,94.64
2019-05-29T02:30:56.869Z,95.05
2019-05-29T02:31:56.877Z,93.96
2019-05-29T02:32:56.827Z,94.07
2019-05-29T02:33:56.821Z,94.33
2019-05-29T02:34:56.806Z,94.17
2019-05-29T02:35:56.786Z,94.07
2019-05-29T02:36:56.799Z,94.07
2019-05-29T02:37:56.813Z,94.07
2019-05-29T02:38:56.751Z,94.37
2019-05-29T02:39:56.741Z,93.86
2019-05-29T02:40:56.731Z,93.86
2019-05-29T02:41:56.729Z,93.65
2019-05-29T02:42:56.719Z,94.37
2019-05-29T02:43:56.776Z,94.37
2019-05-29T02:44:56.688Z,94.17
2019-05-29T02:45:56.683Z,94.31
2019-05-29T02:46:56.669Z,93.76
2019-05-29T02:47:56.653Z,93.90
2019-05-29T02:48:56.674Z,93.70
2019-05-29T02:49:56.684Z,93.35
2019-05-29T02:50:56.638Z,93.39
2019-05-29T02:51:56.609Z,94.11
2019-05-29T02:52:56.647Z,94.42
2019-05-29T02:53:56.597Z,93.59
2019-05-29T02:54:56.594Z,93.80
2019-05-29T02:55:56.623Z,94.01
2019-05-29T02:56:56.559Z,94.01
2019-05-29T02:57:56.555Z,93.90
2019-05-29T02:58:56.533Z,93.70
2019-05-29T02:59:56.526Z,93.80
2019-05-29T03:00:56.539Z,93.39
2019-05-29T03:01:56.537Z,92.82
2019-05-29T03:02:56.491Z,93.02
2019-05-29T03:03:56.478Z,93.59
2019-05-29T03:04:56.471Z,93.23
2019-05-29T03:05:56.468Z,93.23
2019-05-29T03:06:56.469Z,93.54
2019-05-29T03:07:56.602Z,93.33
2019-05-29T03:08:56.432Z,93.33
2019-05-29T03:09:56.413Z,93.39
2019-05-29T03:10:56.423Z,93.64
2019-05-29T03:11:59.979Z,93.64
2019-05-29T03:12:56.417Z,93.43
2019-05-29T03:13:56.406Z,93.54
2019-05-29T03:14:56.353Z,93.54
2019-05-29T03:16:09.365Z,93.64
2019-05-29T03:16:57.333Z,93.43
2019-05-29T03:17:56.324Z,93.74
2019-05-29T03:18:56.327Z,93.84
2019-05-29T03:19:56.352Z,94.05
2019-05-29T03:20:56.287Z,93.84
2019-05-29T03:21:56.278Z,93.95
2019-05-29T03:22:56.270Z,94.05
2019-05-29T03:23:56.255Z,94.15
2019-05-29T03:24:56.265Z,93.84
2019-05-29T03:25:56.273Z,94.09
2019-05-29T03:26:56.226Z,93.95
2019-05-29T03:27:56.305Z,93.64
2019-05-29T03:28:56.200Z,94.05
2019-05-29T03:29:56.189Z,94.30
2019-05-29T03:30:56.206Z,94.09
2019-05-29T03:31:56.211Z,94.36
2019-05-29T03:32:56.160Z,94.30
2019-05-29T03:33:56.159Z,94.51
2019-05-29T03:34:56.139Z,94.26
2019-05-29T03:35:56.129Z,94.46
2019-05-29T03:36:56.131Z,94.40
2019-05-29T03:37:58.818Z,94.40
2019-05-29T03:38:56.090Z,94.26
2019-05-29T03:39:56.077Z,94.36
2019-05-29T03:40:56.066Z,94.36
2019-05-29T03:41:56.061Z,94.98
2019-05-29T03:42:56.061Z,94.98
2019-05-29T03:43:56.086Z,95.08
2019-05-29T03:44:56.023Z,94.98
2019-05-29T03:45:56.011Z,94.77
2019-05-29T03:46:56.004Z,94.87
2019-05-29T03:47:55.987Z,94.56
2019-05-29T03:48:56.001Z,94.71
2019-05-29T03:49:56.007Z,94.46
2019-05-29T03:50:55.957Z,94.56
2019-05-29T03:51:55.943Z,94.77
2019-05-29T03:52:55.932Z,94.71
2019-05-29T03:53:55.924Z,94.92
2019-05-29T03:54:55.930Z,94.40
2019-05-29T03:55:55.946Z,94.67
2019-05-29T03:56:55.888Z,94.71
2019-05-29T03:57:55.896Z,95.08
2019-05-29T03:58:55.871Z,95.12
2019-05-29T03:59:55.853Z,95.23
2019-05-29T04:00:55.859Z,94.92
2019-05-29T04:01:55.883Z,95.39
2019-05-29T04:02:55.821Z,95.12
2019-05-29T04:03:55.814Z,95.02
2019-05-29T04:04:55.801Z,94.60
2019-05-29T04:05:55.789Z,94.60
2019-05-29T04:06:55.790Z,94.81
2019-05-29T04:07:55.804Z,94.71
2019-05-29T04:08:55.753Z,94.71
2019-05-29T04:09:55.754Z,94.81
2019-05-29T04:10:55.732Z,94.56
2019-05-29T04:11:55.735Z,94.36
2019-05-29T04:12:55.724Z,94.46
2019-05-29T04:13:55.767Z,94.60
2019-05-29T04:14:55.702Z,94.36
2019-05-29T04:15:55.679Z,94.56
2019-05-29T04:16:59.790Z,95.08
2019-05-29T04:17:55.654Z,94.98
2019-05-29T04:18:55.641Z,94.87
2019-05-29T04:19:55.668Z,94.77
2019-05-29T04:20:55.623Z,94.77
2019-05-29T04:21:55.608Z,95.08
2019-05-29T04:22:55.600Z,95.18
2019-05-29T04:23:55.610Z,93.95
2019-05-29T04:24:55.744Z,94.77
2019-05-29T04:25:55.723Z,95.08
2019-05-29T04:26:55.618Z,94.73
2019-05-29T04:27:55.562Z,94.77
2019-05-29T04:28:55.564Z,94.77
2019-05-29T04:29:55.524Z,94.93
2019-05-29T04:30:55.540Z,94.31
2019-05-29T04:31:55.553Z,94.21
2019-05-29T04:32:55.491Z,94.42
2019-05-29T04:33:55.492Z,94.52
2019-05-29T04:34:55.464Z,94.42
2019-05-29T04:35:55.456Z,94.73
2019-05-29T04:36:55.453Z,94.83
2019-05-29T04:37:55.472Z,94.93
2019-05-29T04:38:55.450Z,94.93
2019-05-29T04:39:55.413Z,94.93
2019-05-29T04:40:55.398Z,93.96
2019-05-29T04:41:55.395Z,94.17
2019-05-29T04:42:55.377Z,94.17
2019-05-29T04:43:57.205Z,94.07
2019-05-29T04:44:55.365Z,94.07
2019-05-29T04:45:55.345Z,93.96
2019-05-29T04:47:10.453Z,93.71
2019-05-29T04:47:56.328Z,93.65
2019-05-29T04:48:55.312Z,93.30
2019-05-29T04:49:55.496Z,92.58
2019-05-29T04:50:55.326Z,92.99
2019-05-29T04:51:55.278Z,93.10
2019-05-29T04:52:55.267Z,92.48
2019-05-29T04:53:55.264Z,92.54
2019-05-29T04:54:55.244Z,92.74
2019-05-29T04:55:55.276Z,92.64
2019-05-29T04:56:55.248Z,92.40
2019-05-29T04:57:55.214Z,92.19
2019-05-29T04:58:55.201Z,91.67
2019-05-29T04:59:55.187Z,91.57
2019-05-29T05:00:59.138Z,91.27
2019-05-29T05:01:55.236Z,91.22
2019-05-29T05:02:55.177Z,90.50
2019-05-29T05:03:55.143Z,90.30
2019-05-29T05:04:55.133Z,89.95
2019-05-29T05:05:55.131Z,90.36
2019-05-29T05:06:55.131Z,89.27
2019-05-29T05:07:55.137Z,87.79
2019-05-29T05:08:55.106Z,87.70
2019-05-29T05:09:55.081Z,87.90
2019-05-29T05:10:55.068Z,87.85
2019-05-29T05:11:55.058Z,87.85
2019-05-29T05:12:55.053Z,86.93
2019-05-29T05:13:55.089Z,86.52
2019-05-29T05:14:55.098Z,85.91
2019-05-29T05:15:55.010Z,86.83
2019-05-29T05:16:54.999Z,87.24
2019-05-29T05:17:54.992Z,86.63
2019-05-29T05:18:54.983Z,86.18
2019-05-29T05:19:55.007Z,86.07
2019-05-29T05:20:54.996Z,86.18
2019-05-29T05:21:54.944Z,86.48
2019-05-29T05:22:54.932Z,86.38
2019-05-29T05:23:54.921Z,86.48
2019-05-29T05:24:54.910Z,85.97
2019-05-29T05:25:54.954Z,85.97
2019-05-29T05:26:54.909Z,85.97
2019-05-29T05:27:54.880Z,86.24
2019-05-29T05:28:54.911Z,86.14
2019-05-29T05:29:54.856Z,84.29
2019-05-29T05:30:54.850Z,83.92
2019-05-29T05:31:54.884Z,84.19
2019-05-29T05:32:54.844Z,85.22
2019-05-29T05:33:54.820Z,85.22
2019-05-29T05:34:54.801Z,85.63
2019-05-29T05:35:54.788Z,85.63
2019-05-29T05:36:54.779Z,86.04
2019-05-29T05:37:54.810Z,85.79
2019-05-29T05:38:54.784Z,83.88
2019-05-29T05:39:54.746Z,84.05
2019-05-29T05:40:54.744Z,83.84
2019-05-29T05:41:54.720Z,83.74
2019-05-29T05:42:54.711Z,83.64
2019-05-29T05:43:54.747Z,83.27
2019-05-29T05:44:54.708Z,84.80
2019-05-29T05:45:54.681Z,84.39
2019-05-29T05:46:54.667Z,84.56
2019-05-29T05:47:57.718Z,84.15
2019-05-29T05:48:54.647Z,84.11
2019-05-29T05:49:54.662Z,83.64
2019-05-29T05:50:54.640Z,83.33
2019-05-29T05:51:54.611Z,82.92
2019-05-29T05:52:54.636Z,83.33
2019-05-29T05:53:54.590Z,83.13
2019-05-29T05:54:54.578Z,81.49
2019-05-29T05:55:54.614Z,83.54
2019-05-29T05:56:54.571Z,83.44
2019-05-29T05:57:54.543Z,82.71
2019-05-29T05:58:54.535Z,83.39
2019-05-29T05:59:54.530Z,82.89
2019-05-29T06:00:54.519Z,83.09
2019-05-29T06:01:54.558Z,82.48
2019-05-29T06:02:54.512Z,82.17
2019-05-29T06:03:54.476Z,82.07
2019-05-29T06:04:54.468Z,82.37
2019-05-29T06:05:54.456Z,82.98
2019-05-29T06:06:54.443Z,81.96
2019-05-29T06:07:54.475Z,82.98
2019-05-29T06:08:54.459Z,82.23
2019-05-29T06:09:54.415Z,82.54
2019-05-29T06:10:54.399Z,83.25
2019-05-29T06:11:54.388Z,83.05
2019-05-29T06:12:54.377Z,81.41
2019-05-29T06:13:54.422Z,81.51
2019-05-29T06:14:54.393Z,81.41
2019-05-29T06:15:54.343Z,81.93
2019-05-29T06:16:54.333Z,81.93
2019-05-29T06:18:17.038Z,82.34
2019-05-29T06:18:55.357Z,83.11
2019-05-29T06:19:54.300Z,83.01
2019-05-29T06:20:54.311Z,81.72
2019-05-29T06:21:54.281Z,82.64
2019-05-29T06:22:54.282Z,82.34
2019-05-29T06:23:54.255Z,82.81
2019-05-29T06:24:54.286Z,82.50
2019-05-29T06:25:54.239Z,82.97
2019-05-29T06:26:54.242Z,81.13
2019-05-29T06:27:54.231Z,80.83
2019-05-29T06:28:54.210Z,80.93
2019-05-29T06:29:54.192Z,80.42
2019-05-29T06:30:54.222Z,80.73
2019-05-29T06:31:54.167Z,80.32
2019-05-29T06:32:54.279Z,80.69
2019-05-29T06:33:54.289Z,80.73
2019-05-29T06:34:54.167Z,79.60
2019-05-29T06:35:54.120Z,81.13
2019-05-29T06:36:54.152Z,80.38
2019-05-29T06:37:54.111Z,80.07
2019-05-29T06:38:54.090Z,80.01
2019-05-29T06:39:54.079Z,81.13
2019-05-29T06:40:54.083Z,80.89
2019-05-29T06:41:54.054Z,80.28
2019-05-29T06:42:54.143Z,81.20
2019-05-29T06:43:54.040Z,79.77
2019-05-29T06:44:54.022Z,79.57
2019-05-29T06:45:54.033Z,79.32
2019-05-29T06:46:54.009Z,79.43
2019-05-29T06:47:53.989Z,78.50
2019-05-29T06:49:00.438Z,78.30
2019-05-29T06:49:54.963Z,78.37
2019-05-29T06:50:57.265Z,77.75
2019-05-29T06:51:53.960Z,78.27
2019-05-29T06:52:53.932Z,76.84
2019-05-29T06:53:53.922Z,77.41
2019-05-29T06:54:53.953Z,76.09
2019-05-29T06:55:55.711Z,75.20
2019-05-29T06:56:53.888Z,76.59
2019-05-29T06:57:53.913Z,77.92
2019-05-29T06:58:53.870Z,77.72
2019-05-29T06:59:53.872Z,79.55
2019-05-29T07:00:53.916Z,77.78
2019-05-29T07:01:53.836Z,76.46
2019-05-29T07:02:53.819Z,76.05
2019-05-29T07:04:10.468Z,75.60
2019-05-29T07:04:54.798Z,75.81
2019-05-29T07:05:53.786Z,75.71
2019-05-29T07:06:54.146Z,75.81
2019-05-29T07:07:53.767Z,76.01
2019-05-29T07:08:53.804Z,75.10
2019-05-29T07:09:53.758Z,75.30
2019-05-29T07:10:53.809Z,74.76
2019-05-29T07:11:53.800Z,76.53
2019-05-29T07:12:53.720Z,75.06
2019-05-29T07:13:53.699Z,75.23
2019-05-29T07:14:53.695Z,73.71
2019-05-29T07:15:53.726Z,74.11
2019-05-29T07:16:56.168Z,74.72
2019-05-29T07:17:53.745Z,73.19
2019-05-29T07:19:23.990Z,72.99
2019-05-29T07:20:03.343Z,73.40
2019-05-29T07:20:54.623Z,70.75
2019-05-29T07:21:53.628Z,70.95
2019-05-29T07:22:53.600Z,72.08
2019-05-29T07:23:53.627Z,71.87
2019-05-29T07:24:53.579Z,71.47
2019-05-29T07:25:53.564Z,71.87
2019-05-29T07:26:53.575Z,72.86
2019-05-29T07:27:53.542Z,71.43
2019-05-29T07:29:06.889Z,71.84
2019-05-29T07:29:54.556Z,71.02
2019-05-29T07:31:00.208Z,68.58
2019-05-29T07:31:54.497Z,68.99
2019-05-29T07:32:58.676Z,69.80
2019-05-29T07:33:54.476Z,69.40
2019-05-29T07:35:03.095Z,70.51
2019-05-29T07:35:54.504Z,69.06
2019-05-29T07:36:53.445Z,68.24
2019-05-29T07:37:53.432Z,69.90
2019-05-29T07:39:02.595Z,69.70
2019-05-29T07:39:54.414Z,70.48
2019-05-29T07:40:53.411Z,68.75
2019-05-29T07:41:53.422Z,70.04
2019-05-29T07:42:56.673Z,68.75
2019-05-29T07:43:53.366Z,68.52
2019-05-29T07:44:53.377Z,70.04
2019-05-29T07:45:53.347Z,70.01
2019-05-29T07:46:53.340Z,68.41
2019-05-29T07:47:53.375Z,68.62
2019-05-29T07:48:53.316Z,68.72
2019-05-29T07:49:53.298Z,68.38
2019-05-29T07:51:06.345Z,68.89
2019-05-29T07:51:54.281Z,71.53
2019-05-29T07:52:53.376Z,69.78
2019-05-29T07:53:53.313Z,67.44
2019-05-29T07:54:53.322Z,68.45
2019-05-29T07:55:53.245Z,67.91
2019-05-29T07:56:53.247Z,67.94
2019-05-29T07:57:53.224Z,66.12
2019-05-29T07:59:02.720Z,66.22
2019-05-29T07:59:54.241Z,66.83
2019-05-29T08:01:12.369Z,65.41
2019-05-29T08:01:54.166Z,64.79
2019-05-29T08:02:53.188Z,66.52
2019-05-29T08:03:53.148Z,65.17
2019-05-29T08:04:53.136Z,63.85
2019-05-29T08:05:53.507Z,65.07
2019-05-29T08:06:54.655Z,64.67
2019-05-29T08:07:53.139Z,65.04
2019-05-29T08:08:53.113Z,65.34
2019-05-29T08:09:53.088Z,65.34
2019-05-29T08:10:53.065Z,65.55
2019-05-29T08:11:53.172Z,65.92
2019-05-29T08:12:55.470Z,65.31
2019-05-29T08:13:53.029Z,65.62
2019-05-29T08:14:53.062Z,63.59
2019-05-29T08:16:02.342Z,64.94
2019-05-29T08:16:54.041Z,66.77
2019-05-29T08:17:52.984Z,67.47
2019-05-29T08:18:53.327Z,67.14
2019-05-29T08:20:05.863Z,69.64
2019-05-29T08:20:53.963Z,68.49
2019-05-29T08:21:52.944Z,67.65
2019-05-29T08:22:52.977Z,67.01
2019-05-29T08:23:52.925Z,62.86
2019-05-29T08:24:52.908Z,64.89
2019-05-29T08:25:52.898Z,63.47
2019-05-29T08:26:52.905Z,60.74
2019-05-29T08:27:52.879Z,61.95
2019-05-29T08:28:52.906Z,62.66
2019-05-29T08:29:52.849Z,61.04
2019-05-29T08:30:56.315Z,62.35
2019-05-29T08:31:52.831Z,62.15
2019-05-29T08:32:52.859Z,61.27
2019-05-29T08:33:52.815Z,62.52
2019-05-29T08:34:52.916Z,63.73
2019-05-29T08:35:59.347Z,64.04
2019-05-29T08:37:06.032Z,63.20
2019-05-29T08:37:53.762Z,62.92
2019-05-29T08:38:52.781Z,62.72
2019-05-29T08:39:52.744Z,62.31
2019-05-29T08:40:52.787Z,63.09
2019-05-29T08:42:19.295Z,62.46
2019-05-29T08:42:53.710Z,62.63
2019-05-29T08:43:52.877Z,62.63
2019-05-29T08:44:52.703Z,62.50
2019-05-29T08:45:52.823Z,61.90
2019-05-29T08:47:08.523Z,63.08
2019-05-29T08:47:53.656Z,63.89
2019-05-29T08:48:52.646Z,60.93
2019-05-29T08:49:54.475Z,61.63
2019-05-29T08:50:52.635Z,60.93
2019-05-29T08:52:10.199Z,59.11
2019-05-29T08:52:53.738Z,61.87
2019-05-29T08:53:54.729Z,61.16
2019-05-29T08:54:52.584Z,59.14
2019-05-29T08:55:52.762Z,59.64
2019-05-29T08:56:52.592Z,59.21
2019-05-29T08:57:52.568Z,58.30
2019-05-29T08:58:52.664Z,56.58
2019-05-29T08:59:52.711Z,58.63
2019-05-29T09:00:55.247Z,57.92
2019-05-29T09:01:54.972Z,58.02
2019-05-29T09:02:52.851Z,58.12
2019-05-29T09:03:53.315Z,57.72
2019-05-29T09:04:54.750Z,57.31
2019-05-29T09:06:06.823Z,56.13
2019-05-29T09:06:53.636Z,55.73
2019-05-29T09:07:54.259Z,55.82
2019-05-29T09:08:54.794Z,57.54
2019-05-29T09:09:53.292Z,56.40
2019-05-29T09:10:54.231Z,57.09
2019-05-29T09:11:53.625Z,59.14
2019-05-29T09:13:03.599Z,59.51
2019-05-29T09:13:53.365Z,58.70
2019-05-29T09:14:52.360Z,58.09
2019-05-29T09:15:52.344Z,56.27
2019-05-29T09:16:52.449Z,55.67
2019-05-29T09:17:52.325Z,57.39
2019-05-29T09:18:52.307Z,56.88
2019-05-29T09:19:52.295Z,55.27
2019-05-29T09:21:02.754Z,54.56
2019-05-29T09:21:53.306Z,55.32
2019-05-29T09:22:52.269Z,56.79
2019-05-29T09:23:52.248Z,58.11
2019-05-29T09:24:52.241Z,59.90
2019-05-29T09:25:52.231Z,60.78
2019-05-29T09:26:52.245Z,61.49
2019-05-29T09:27:52.255Z,59.14
2019-05-29T09:28:52.231Z,59.23
2019-05-29T09:29:52.199Z,59.91
2019-05-29T09:30:52.175Z,59.78
2019-05-29T09:31:52.165Z,57.67
2019-05-29T09:32:53.128Z,57.23
2019-05-29T09:33:52.186Z,56.12
2019-05-29T09:34:52.151Z,57.64
2019-05-29T09:35:52.114Z,53.80
2019-05-29T09:36:55.490Z,53.93
2019-05-29T09:37:52.100Z,54.33
2019-05-29T09:38:52.100Z,57.46
2019-05-29T09:39:52.102Z,56.96
2019-05-29T09:40:52.945Z,55.94
2019-05-29T09:41:52.049Z,56.96
2019-05-29T09:42:52.040Z,58.34
2019-05-29T09:43:59.213Z,55.92
2019-05-29T09:44:53.080Z,53.80
2019-05-29T09:45:52.010Z,56.93
2019-05-29T09:46:51.994Z,56.96
2019-05-29T09:47:51.988Z,53.55
2019-05-29T09:48:51.981Z,56.76
2019-05-29T09:49:51.965Z,56.35
2019-05-29T09:50:52.027Z,53.42
2019-05-29T09:51:52.668Z,55.14
2019-05-29T09:52:54.668Z,54.53
2019-05-29T09:53:52.552Z,53.83
2019-05-29T09:54:53.035Z,53.93
2019-05-29T09:55:52.286Z,53.42
2019-05-29T09:56:52.459Z,54.10
2019-05-29T09:57:53.517Z,52.89
2019-05-29T09:58:53.708Z,54.31
2019-05-29T09:59:53.837Z,53.90
2019-05-29T10:01:09.540Z,54.21
2019-05-29T10:01:54.331Z,54.61
2019-05-29T10:02:52.812Z,56.35
2019-05-29T10:03:54.806Z,54.96
2019-05-29T10:04:53.086Z,54.05
2019-05-29T10:05:54.061Z,54.56
2019-05-29T10:06:51.783Z,53.14
2019-05-29T10:07:53.099Z,55.24
2019-05-29T10:08:51.791Z,56.78
2019-05-29T10:09:51.738Z,56.48
2019-05-29T10:10:51.771Z,55.94
2019-05-29T10:11:51.717Z,54.61
2019-05-29T10:12:51.708Z,55.59
2019-05-29T10:13:51.741Z,56.30
2019-05-29T10:14:51.709Z,55.36
2019-05-29T10:15:51.676Z,56.48
2019-05-29T10:16:51.668Z,55.16
2019-05-29T10:17:51.660Z,55.26
2019-05-29T10:18:51.645Z,55.44
2019-05-29T10:19:51.668Z,54.53
2019-05-29T10:20:51.638Z,54.05
2019-05-29T10:21:51.612Z,53.92
2019-05-29T10:22:51.595Z,54.73
2019-05-29T10:23:51.615Z,51.91
2019-05-29T10:24:51.574Z,53.63
2019-05-29T10:25:51.704Z,55.54
2019-05-29T10:26:51.576Z,53.52
2019-05-29T10:27:51.538Z,53.90
2019-05-29T10:29:05.476Z,53.25
2019-05-29T10:29:53.952Z,54.56
2019-05-29T10:30:52.782Z,52.26
2019-05-29T10:31:53.414Z,51.28
2019-05-29T10:32:52.907Z,51.00
2019-05-29T10:33:52.390Z,52.41
2019-05-29T10:34:52.577Z,52.29
2019-05-29T10:35:54.812Z,51.98
2019-05-29T10:36:53.581Z,54.48
2019-05-29T10:37:52.864Z,51.76
2019-05-29T10:38:52.600Z,51.93
2019-05-29T10:39:51.406Z,53.14
2019-05-29T10:41:00.333Z,51.93
2019-05-29T10:41:52.986Z,53.14
2019-05-29T10:42:51.678Z,50.90
2019-05-29T10:43:51.463Z,51.81
2019-05-29T10:44:51.409Z,54.30
2019-05-29T10:45:52.058Z,53.20
2019-05-29T10:46:52.473Z,53.17
2019-05-29T10:47:52.322Z,50.25
2019-05-29T10:48:53.974Z,49.15
2019-05-29T10:49:51.788Z,52.44
2019-05-29T10:50:53.582Z,50.02
2019-05-29T10:52:09.360Z,50.93
2019-05-29T10:52:52.284Z,52.22
2019-05-29T10:53:53.068Z,50.71
2019-05-29T10:54:52.313Z,50.31
2019-05-29T10:55:52.630Z,53.02
2019-05-29T10:56:52.594Z,49.90
2019-05-29T10:57:51.205Z,50.91
2019-05-29T10:58:56.205Z,49.80
2019-05-29T10:59:52.879Z,48.32
2019-05-29T11:00:51.336Z,49.73
2019-05-29T11:01:51.722Z,49.42
2019-05-29T11:02:53.527Z,48.49
2019-05-29T11:03:52.339Z,49.90
2019-05-29T11:04:55.064Z,50.51
2019-05-29T11:05:52.118Z,50.00
2019-05-29T11:06:52.446Z,49.88
2019-05-29T11:07:51.869Z,48.19
2019-05-29T11:08:52.033Z,49.98
2019-05-29T11:09:52.190Z,50.78
2019-05-29T11:10:52.088Z,52.39
2019-05-29T11:11:53.079Z,48.35
2019-05-29T11:12:51.049Z,48.35
2019-05-29T11:13:51.060Z,46.84
2019-05-29T11:14:51.036Z,46.46
2019-05-29T11:15:51.004Z,45.95
2019-05-29T11:16:51.002Z,44.17
2019-05-29T11:17:51.396Z,43.48
2019-05-29T11:18:51.278Z,43.28
2019-05-29T11:19:51.206Z,42.76
2019-05-29T11:20:51.348Z,42.98
2019-05-29T11:21:51.739Z,45.78
2019-05-29T11:22:51.632Z,44.24
2019-05-29T11:23:51.834Z,45.05
2019-05-29T11:24:52.366Z,43.24
2019-05-29T11:25:52.082Z,42.66
2019-05-29T11:26:52.244Z,45.75
2019-05-29T11:27:51.014Z,44.55
2019-05-29T11:28:50.860Z,45.55
2019-05-29T11:29:50.943Z,46.73
2019-05-29T11:30:52.277Z,46.01
2019-05-29T11:31:50.875Z,45.03
2019-05-29T11:32:52.539Z,45.94
2019-05-29T11:33:50.821Z,47.34
2019-05-29T11:34:52.361Z,44.43
2019-05-29T11:36:00.963Z,48.72
2019-05-29T11:36:51.995Z,44.28
2019-05-29T11:37:50.762Z,45.77
2019-05-29T11:38:50.751Z,45.04
2019-05-29T11:39:50.747Z,44.56
2019-05-29T11:41:04.587Z,43.16
2019-05-29T11:41:52.666Z,45.06
2019-05-29T11:42:50.886Z,46.15
2019-05-29T11:43:50.762Z,46.85
2019-05-29T11:44:50.857Z,42.41
2019-05-29T11:45:51.191Z,42.21
2019-05-29T11:46:51.998Z,42.32
2019-05-29T11:47:51.516Z,41.31
2019-05-29T11:48:51.134Z,38.60
2019-05-29T11:49:50.951Z,42.19
2019-05-29T11:50:50.616Z,42.77
2019-05-29T11:51:51.579Z,39.67
2019-05-29T11:52:50.617Z,38.17
2019-05-29T11:53:51.457Z,38.97
2019-05-29T11:54:55.552Z,40.65
2019-05-29T11:55:52.398Z,38.35
2019-05-29T11:56:51.944Z,38.55
2019-05-29T11:57:51.820Z,38.73
2019-05-29T11:58:50.855Z,36.83
2019-05-29T11:59:51.745Z,38.22
2019-05-29T12:00:50.763Z,38.92
2019-05-29T12:01:52.234Z,42.74
2019-05-29T12:02:51.453Z,41.89
2019-05-29T12:04:14.995Z,39.17
2019-05-29T12:04:51.466Z,39.47
2019-05-29T12:05:51.199Z,38.95
2019-05-29T12:06:51.166Z,38.85
2019-05-29T12:07:51.573Z,39.05
2019-05-29T12:08:51.451Z,39.67
2019-05-29T12:09:51.375Z,37.46
2019-05-29T12:10:51.274Z,40.27
2019-05-29T12:11:51.770Z,36.65
2019-05-29T12:12:51.404Z,38.63
2019-05-29T12:13:51.617Z,38.53
2019-05-29T12:15:00.743Z,39.41
2019-05-29T12:15:51.537Z,40.00
2019-05-29T12:16:51.645Z,41.88
2019-05-29T12:17:55.685Z,43.35
2019-05-29T12:18:51.572Z,36.96
2019-05-29T12:19:50.309Z,36.66
2019-05-29T12:20:50.309Z,38.72
2019-05-29T12:21:50.289Z,39.04
2019-05-29T12:23:16.723Z,38.56
2019-05-29T12:23:51.983Z,40.16
2019-05-29T12:24:50.315Z,40.95
2019-05-29T12:26:10.346Z,38.54
2019-05-29T12:26:52.418Z,38.76
2019-05-29T12:27:50.234Z,36.56
2019-05-29T12:28:50.263Z,38.36
2019-05-29T12:29:50.204Z,38.26
2019-05-29T12:30:50.255Z,37.06
2019-05-29T12:31:50.182Z,40.34
2019-05-29T12:32:50.173Z,38.04
2019-05-29T12:33:50.163Z,35.56
2019-05-29T12:34:53.606Z,38.32
2019-05-29T12:35:51.174Z,36.52
2019-05-29T12:36:50.151Z,36.71
2019-05-29T12:37:50.135Z,37.02
2019-05-29T12:38:50.114Z,38.42
2019-05-29T12:39:50.102Z,36.02
2019-05-29T12:40:50.096Z,36.43
2019-05-29T12:41:50.120Z,38.52
2019-05-29T12:42:50.068Z,38.52
2019-05-29T12:43:50.072Z,38.02
2019-05-29T12:44:50.048Z,38.80
2019-05-29T12:45:50.048Z,36.09
2019-05-29T12:46:50.029Z,36.21
2019-05-29T12:47:50.055Z,34.80
2019-05-29T12:48:50.008Z,35.49
2019-05-29T12:49:50.006Z,35.88
2019-05-29T12:50:49.998Z,36.77
2019-05-29T12:51:49.990Z,38.15
2019-05-29T12:52:49.969Z,38.45